Time;durP1;ratioP1;P1;durP2;ratioP2;P2;SDS_P1;SDS_P2;PMS_P1;PMS_P2;Temp;Humidity;BMP_temperature;BMP_pressure;BME280_temperature;BME280_humidity;BME280_pressure;Samples;Min_cycle;Max_cycle;Signal;HPM_P1;HPM_P2
2022/05/08 00:01:50;;;;;;;;;;;9.00;99.90;;;;;;5014374;28;19922;-62
2022/05/08 00:04:16;;;;;;;;;;;9.30;99.90;;;;;;5014093;28;19921;-62
2022/05/08 00:06:41;;;;;;;;;;;9.10;99.90;;;;;;5014049;28;19921;-62
2022/05/08 00:09:07;;;;;;;;;;;8.90;99.90;;;;;;5013165;28;19975;-63
2022/05/08 00:11:32;;;;;;;;;;;9.10;99.90;;;;;;5014103;28;20004;-62
2022/05/08 00:13:58;;;;;;;;;;;9.20;99.90;;;;;;5013782;28;20349;-62
2022/05/08 00:16:23;;;;;;;;;;;9.80;99.90;;;;;;4996503;28;20016;-62
2022/05/08 00:18:49;;;;;;;;;;;9.60;99.90;;;;;;5014017;28;19933;-62
2022/05/08 00:21:15;;;;;;;;;;;9.40;99.90;;;;;;4996373;28;19925;-63
2022/05/08 00:23:40;;;;;;;;;;;10.10;99.90;;;;;;4996331;28;20391;-62
2022/05/08 00:26:08;;;;;;;;;;;8.90;99.90;;;;;;5013757;28;19944;-62
2022/05/08 00:28:34;;;;;;;;;;;9.00;99.90;;;;;;4996375;28;19925;-62
2022/05/08 00:31:00;;;;;;;;;;;8.90;99.90;;;;;;5014171;28;19932;-63
2022/05/08 00:33:25;;;;;;;;;;;9.60;99.90;;;;;;5013743;28;19925;-63
2022/05/08 00:35:51;;;;;;;;;;;9.50;99.90;;;;;;5013725;28;19921;-63
2022/05/08 00:38:16;;;;;;;;;;;9.00;99.90;;;;;;5013624;28;19921;-63
2022/05/08 00:40:42;;;;;;;;;;;10.00;99.90;;;;;;5013516;28;20278;-62
2022/05/08 00:43:28;;;;;;;;;;;10.10;99.90;;;;;;4995864;28;19921;-61
2022/05/08 00:45:54;;;;;;;;;;;8.60;99.90;;;;;;5013684;28;19949;-62
2022/05/08 00:48:20;;;;;;;;;;;8.70;99.90;;;;;;5013516;28;19987;-64
2022/05/08 00:50:46;;;;;;;;;;;9.40;99.90;;;;;;5013377;28;19973;-62
2022/05/08 00:53:11;;;;;;;;;;;9.20;99.90;;;;;;5013369;28;20004;-62
2022/05/08 00:55:37;;;;;;;;;;;9.30;99.90;;;;;;5013197;28;19921;-62
2022/05/08 00:58:03;;;;;;;;;;;8.60;99.90;;;;;;5013413;28;20035;-62
2022/05/08 01:00:29;;;;;;;;;;;8.80;99.90;;;;;;5013409;28;19921;-62
2022/05/08 01:02:57;;;;;;;;;;;9.00;99.90;;;;;;5013272;28;19960;-62
2022/05/08 01:05:23;;;;;;;;;;;8.90;99.90;;;;;;5013167;28;20389;-62
2022/05/08 01:07:49;;;;;;;;;;;9.00;99.90;;;;;;4995827;28;19922;-62
2022/05/08 01:10:15;;;;;;;;;;;8.80;99.90;;;;;;5012993;28;20481;-62
2022/05/08 01:12:44;;;;;;;;;;;8.70;99.90;;;;;;5013261;28;19931;-62
2022/05/08 01:15:17;;;;;;;;;;;9.70;99.90;;;;;;5013055;28;19921;-62
2022/05/08 01:17:42;;;;;;;;;;;8.50;99.90;;;;;;4995799;28;19987;-62
2022/05/08 01:20:08;;;;;;;;;;;8.90;99.90;;;;;;5012948;28;20328;-62
2022/05/08 01:22:34;;;;;;;;;;;8.70;99.90;;;;;;5012858;28;19948;-62
2022/05/08 01:25:00;;;;;;;;;;;8.50;99.90;;;;;;5012854;28;19921;-62
2022/05/08 01:27:25;;;;;;;;;;;9.60;99.90;;;;;;5013139;28;19925;-63
2022/05/08 01:29:51;;;;;;;;;;;8.70;99.90;;;;;;4995347;28;19921;-61
2022/05/08 01:32:16;;;;;;;;;;;8.60;99.90;;;;;;5012929;28;19922;-62
2022/05/08 01:34:42;;;;;;;;;;;8.70;99.90;;;;;;5012809;28;20354;-63
2022/05/08 01:37:07;;;;;;;;;;;8.80;99.90;;;;;;5012944;28;20288;-63
2022/05/08 01:39:33;;;;;;;;;;;9.20;99.90;;;;;;5012649;28;20353;-62
2022/05/08 01:41:58;;;;;;;;;;;9.00;99.90;;;;;;5012974;28;19921;-61
2022/05/08 01:44:24;;;;;;;;;;;8.70;99.90;;;;;;5012842;28;20378;-62
2022/05/08 01:48:21;;;;;;;;;;;9.20;99.90;;;;;;5012786;28;20585;-62
2022/05/08 01:49:35;;;;;;;;;;;8.80;99.90;;;;;;4998113;28;19975;-64
2022/05/08 01:52:03;;;;;;;;;;;8.40;99.90;;;;;;5012609;28;20286;-63
2022/05/08 01:54:28;;;;;;;;;;;8.50;99.90;;;;;;5012753;28;19928;-61
2022/05/08 01:56:54;;;;;;;;;;;9.50;99.90;;;;;;5012776;28;20300;-62
2022/05/08 01:59:19;;;;;;;;;;;8.60;99.90;;;;;;5012765;28;19921;-62
2022/05/08 02:01:45;;;;;;;;;;;8.80;99.90;;;;;;5012630;28;20017;-63
2022/05/08 02:04:15;;;;;;;;;;;8.30;99.90;;;;;;4995271;28;19921;-63
2022/05/08 02:06:41;;;;;;;;;;;8.50;99.90;;;;;;5012566;28;19960;-64
2022/05/08 02:09:07;;;;;;;;;;;8.30;99.90;;;;;;5012736;28;19925;-62
2022/05/08 02:11:32;;;;;;;;;;;8.40;99.90;;;;;;5012691;28;19925;-62
2022/05/08 02:13:58;;;;;;;;;;;8.10;99.90;;;;;;5012529;28;20457;-62
2022/05/08 02:16:24;;;;;;;;;;;8.50;99.90;;;;;;5012437;28;19928;-62
2022/05/08 02:18:50;;;;;;;;;;;8.00;99.90;;;;;;5012534;28;19968;-62
2022/05/08 02:21:16;;;;;;;;;;;9.30;99.90;;;;;;5012406;28;19925;-65
2022/05/08 02:23:42;;;;;;;;;;;8.10;99.90;;;;;;5012679;28;20004;-62
2022/05/08 02:26:07;;;;;;;;;;;8.20;99.90;;;;;;5012649;28;19922;-62
2022/05/08 02:28:33;;;;;;;;;;;8.00;99.90;;;;;;5012480;28;20382;-62
2022/05/08 02:30:58;;;;;;;;;;;8.30;99.90;;;;;;5012514;28;20350;-62
2022/05/08 02:33:24;;;;;;;;;;;7.90;99.90;;;;;;5015609;28;19929;-62
2022/05/08 02:35:49;;;;;;;;;;;7.90;99.90;;;;;;5015574;28;19929;-62
2022/05/08 02:38:15;;;;;;;;;;;7.90;99.90;;;;;;5016073;28;19928;-62
2022/05/08 02:40:40;;;;;;;;;;;7.80;99.90;;;;;;5016553;28;19989;-61
2022/05/08 02:43:06;;;;;;;;;;;7.90;99.90;;;;;;5017169;28;19929;-63
2022/05/08 02:45:32;;;;;;;;;;;7.60;99.90;;;;;;5017500;28;19926;-62
2022/05/08 02:47:57;;;;;;;;;;;9.00;99.90;;;;;;4998763;28;20365;-62
2022/05/08 02:50:23;;;;;;;;;;;7.60;99.90;;;;;;4998883;28;20293;-62
2022/05/08 02:52:49;;;;;;;;;;;7.50;99.90;;;;;;5016779;28;20012;-61
2022/05/08 03:00:44;;;;;;;;;;;8.90;99.90;;;;;;5015303;28;19925;-62
2022/05/08 03:03:10;;;;;;;;;;;7.60;99.90;;;;;;5015281;28;19921;-62
2022/05/08 03:05:36;;;;;;;;;;;7.80;99.90;;;;;;5015473;28;19925;-62
2022/05/08 03:08:03;;;;;;;;;;;7.90;99.90;;;;;;5015285;28;19925;-63
2022/05/08 03:11:25;;;;;;;;;;;7.40;99.90;;;;;;4997954;28;19983;-62
2022/05/08 03:13:15;;;;;;;;;;;8.00;99.90;;;;;;5014814;28;20374;-62
2022/05/08 03:15:40;;;;;;;;;;;8.30;99.90;;;;;;5015280;28;19922;-62
2022/05/08 03:18:06;;;;;;;;;;;8.60;99.90;;;;;;5015249;28;20003;-62
2022/05/08 03:20:31;;;;;;;;;;;8.00;99.90;;;;;;4997597;28;19983;-62
2022/05/08 03:22:57;;;;;;;;;;;8.30;99.90;;;;;;5015042;28;19932;-64
2022/05/08 03:25:22;;;;;;;;;;;8.50;99.90;;;;;;4997378;28;19921;-62
2022/05/08 03:27:48;;;;;;;;;;;8.70;99.90;;;;;;5014837;28;19922;-64
2022/05/08 03:30:13;;;;;;;;;;;8.00;99.90;;;;;;5014746;28;19976;-63
2022/05/08 03:32:40;;;;;;;;;;;7.90;99.90;;;;;;5014736;28;19921;-63
2022/05/08 03:35:06;;;;;;;;;;;7.50;99.90;;;;;;5014737;28;19921;-62
2022/05/08 03:37:33;;;;;;;;;;;7.60;99.90;;;;;;4996990;28;20008;-62
2022/05/08 03:39:59;;;;;;;;;;;7.60;99.90;;;;;;5014639;28;19921;-62
2022/05/08 03:42:24;;;;;;;;;;;8.10;99.90;;;;;;5014403;28;19922;-62
2022/05/08 03:44:53;;;;;;;;;;;7.70;99.90;;;;;;4996159;28;19928;-62
2022/05/08 03:47:19;;;;;;;;;;;7.50;99.90;;;;;;5014697;28;19921;-62
2022/05/08 03:49:45;;;;;;;;;;;8.60;99.90;;;;;;5014413;28;19921;-62
2022/05/08 03:52:10;;;;;;;;;;;9.10;99.90;;;;;;5014419;28;19940;-62
2022/05/08 03:54:36;;;;;;;;;;;8.10;99.90;;;;;;5014295;28;19921;-62
2022/05/08 03:57:01;;;;;;;;;;;8.00;99.90;;;;;;5014311;28;20468;-62
2022/05/08 03:59:27;;;;;;;;;;;8.00;99.90;;;;;;5014192;28;20334;-64
2022/05/08 04:01:54;;;;;;;;;;;8.80;99.90;;;;;;4996921;28;19957;-62
2022/05/08 04:04:20;;;;;;;;;;;8.20;99.90;;;;;;4996718;28;19945;-62
2022/05/08 04:06:46;;;;;;;;;;;8.00;99.90;;;;;;5014174;28;20437;-64
2022/05/08 04:09:12;;;;;;;;;;;8.60;99.90;;;;;;5014105;28;19921;-62
2022/05/08 04:11:37;;;;;;;;;;;7.70;99.90;;;;;;4996470;28;20369;-65
2022/05/08 04:14:03;;;;;;;;;;;8.10;99.90;;;;;;5013869;28;19979;-63
2022/05/08 04:16:28;;;;;;;;;;;7.90;99.90;;;;;;5014067;28;19922;-62
2022/05/08 04:18:54;;;;;;;;;;;8.00;99.90;;;;;;5014000;28;19921;-63
2022/05/08 04:21:20;;;;;;;;;;;7.80;99.90;;;;;;5013923;28;20023;-62
2022/05/08 04:26:30;;;;;;;;;;;7.90;99.90;;;;;;5013767;28;19921;-62
2022/05/08 04:28:58;;;;;;;;;;;8.90;99.90;;;;;;4996451;28;19927;-62
2022/05/08 04:31:24;;;;;;;;;;;7.90;99.90;;;;;;4996511;28;19925;-62
2022/05/08 04:33:50;;;;;;;;;;;8.40;99.90;;;;;;5013737;28;20377;-62
2022/05/08 04:36:16;;;;;;;;;;;9.10;99.90;;;;;;5013525;28;20357;-62
2022/05/08 04:38:42;;;;;;;;;;;8.70;99.90;;;;;;5013586;28;19921;-61
2022/05/08 04:41:07;;;;;;;;;;;7.90;99.90;;;;;;5013512;28;20831;-62
2022/05/08 04:43:33;;;;;;;;;;;8.20;99.90;;;;;;4996377;28;19929;-63
2022/05/08 04:45:58;;;;;;;;;;;9.00;99.90;;;;;;4996257;28;19925;-62
2022/05/08 04:48:24;;;;;;;;;;;9.40;99.90;;;;;;4996207;28;19927;-62
2022/05/08 04:50:50;;;;;;;;;;;9.00;99.90;;;;;;5013409;28;19928;-63
2022/05/08 04:53:15;;;;;;;;;;;8.30;99.90;;;;;;5013365;28;19975;-62
2022/05/08 04:55:41;;;;;;;;;;;9.40;99.90;;;;;;4995258;28;19967;-62
2022/05/08 04:58:06;;;;;;;;;;;8.90;99.90;;;;;;5013435;28;20411;-62
2022/05/08 05:00:32;;;;;;;;;;;9.80;99.90;;;;;;5013359;28;19991;-62
2022/05/08 05:02:57;;;;;;;;;;;10.00;99.90;;;;;;5013298;28;19952;-62
2022/05/08 05:05:23;;;;;;;;;;;9.80;99.90;;;;;;5013158;28;19935;-63
2022/05/08 05:07:49;;;;;;;;;;;8.50;99.90;;;;;;5013178;28;19943;-62
2022/05/08 05:10:14;;;;;;;;;;;8.90;99.90;;;;;;5013049;28;20044;-62
2022/05/08 05:12:40;;;;;;;;;;;10.20;99.90;;;;;;5013274;28;19984;-62
2022/05/08 05:15:06;;;;;;;;;;;8.90;99.90;;;;;;5013194;28;19922;-61
2022/05/08 05:17:32;;;;;;;;;;;8.50;99.90;;;;;;5012997;28;20056;-62
2022/05/08 05:19:57;;;;;;;;;;;9.30;99.90;;;;;;4995553;28;20012;-62
2022/05/08 05:22:23;;;;;;;;;;;10.30;99.90;;;;;;4995342;28;19929;-63
2022/05/08 05:24:49;;;;;;;;;;;9.00;99.90;;;;;;5012830;28;19979;-63
2022/05/08 05:27:14;;;;;;;;;;;9.80;99.90;;;;;;5013147;28;19927;-63
2022/05/08 05:29:40;;;;;;;;;;;9.90;99.90;;;;;;5013036;28;20126;-62
2022/05/08 05:32:05;;;;;;;;;;;8.80;99.90;;;;;;4995478;28;19921;-61
2022/05/08 05:34:31;;;;;;;;;;;9.40;99.90;;;;;;5012871;28;19921;-62
2022/05/08 05:36:57;;;;;;;;;;;8.90;99.90;;;;;;5012957;28;19922;-62
2022/05/08 05:39:24;;;;;;;;;;;10.30;99.90;;;;;;4995214;28;19921;-65
2022/05/08 05:41:52;;;;;;;;;;;10.40;99.90;;;;;;4995652;28;19921;-62
2022/05/08 05:44:18;;;;;;;;;;;9.40;99.90;;;;;;5012655;28;20385;-62
2022/05/08 05:49:30;;;;;;;;;;;9.90;99.90;;;;;;5012750;28;19928;-62
2022/05/08 05:51:56;;;;;;;;;;;9.30;99.90;;;;;;5012660;28;19921;-62
2022/05/08 05:54:22;;;;;;;;;;;9.70;99.90;;;;;;5012810;28;19921;-61
2022/05/08 05:56:48;;;;;;;;;;;9.40;99.90;;;;;;5012774;28;19921;-61
2022/05/08 05:59:14;;;;;;;;;;;9.40;99.90;;;;;;5012693;28;19930;-64
2022/05/08 06:01:39;;;;;;;;;;;9.40;99.90;;;;;;5012641;28;19921;-62
2022/05/08 06:04:05;;;;;;;;;;;9.10;99.90;;;;;;5012667;28;20277;-62
2022/05/08 06:06:30;;;;;;;;;;;9.20;99.90;;;;;;5013004;28;19995;-62
2022/05/08 06:08:56;;;;;;;;;;;9.90;99.90;;;;;;5016532;28;19975;-62
2022/05/08 06:11:21;;;;;;;;;;;9.70;99.90;;;;;;5016445;28;19925;-61
2022/05/08 06:13:47;;;;;;;;;;;10.20;99.90;;;;;;5016151;28;19928;-60
2022/05/08 06:16:12;;;;;;;;;;;10.20;99.90;;;;;;5016298;28;19925;-62
2022/05/08 06:18:38;;;;;;;;;;;10.60;99.90;;;;;;5016172;28;20040;-62
2022/05/08 06:21:04;;;;;;;;;;;10.40;99.90;;;;;;5016156;28;19936;-64
2022/05/08 06:23:29;;;;;;;;;;;10.30;99.90;;;;;;5016307;28;19967;-62
2022/05/08 06:25:55;;;;;;;;;;;11.50;99.90;;;;;;5016076;28;19967;-62
2022/05/08 06:28:20;;;;;;;;;;;11.90;99.90;;;;;;5016134;28;19921;-62
2022/05/08 06:30:46;;;;;;;;;;;10.60;99.90;;;;;;4998706;28;19929;-62
2022/05/08 06:33:12;;;;;;;;;;;10.60;99.90;;;;;;5015958;28;19921;-62
2022/05/08 06:35:38;;;;;;;;;;;10.70;99.90;;;;;;5015757;28;20317;-61
2022/05/08 06:38:04;;;;;;;;;;;10.30;99.90;;;;;;4998313;28;19994;-62
2022/05/08 06:40:29;;;;;;;;;;;10.00;99.90;;;;;;5009389;28;19928;-72
2022/05/08 06:42:55;;;;;;;;;;;10.60;99.90;;;;;;5011022;28;19929;-62
2022/05/08 06:45:24;;;;;;;;;;;10.90;99.90;;;;;;5011189;28;19921;-70
2022/05/08 06:47:50;;;;;;;;;;;9.90;99.90;;;;;;5013439;28;19925;-67
2022/05/08 06:50:18;;;;;;;;;;;9.90;99.90;;;;;;5010275;28;19928;-72
2022/05/08 06:52:43;;;;;;;;;;;10.20;99.90;;;;;;5010364;28;19922;-64
2022/05/08 06:55:09;;;;;;;;;;;11.10;99.90;;;;;;4999757;28;19932;-61
2022/05/08 06:57:34;;;;;;;;;;;10.60;99.90;;;;;;5035037;28;19980;-63
2022/05/08 07:02:45;;;;;;;;;;;10.60;99.90;;;;;;5034880;28;19975;-62
2022/05/08 07:05:11;;;;;;;;;;;11.00;99.90;;;;;;5034860;28;20332;-62
2022/05/08 07:07:36;;;;;;;;;;;10.60;99.90;;;;;;5034972;28;19921;-63
2022/05/08 07:10:02;;;;;;;;;;;11.10;99.90;;;;;;5010749;28;19972;-62
2022/05/08 07:12:28;;;;;;;;;;;10.50;99.90;;;;;;5014898;28;20357;-61
2022/05/08 07:14:54;;;;;;;;;;;10.60;99.90;;;;;;5014803;28;19963;-60
2022/05/08 07:17:21;;;;;;;;;;;10.60;99.90;;;;;;5014580;28;19988;-63
2022/05/08 07:19:47;;;;;;;;;;;10.80;99.90;;;;;;5015131;28;19928;-61
2022/05/08 07:22:15;;;;;;;;;;;10.50;99.90;;;;;;5014840;28;19976;-61
2022/05/08 07:24:40;;;;;;;;;;;10.70;99.90;;;;;;5014142;28;19932;-61
2022/05/08 07:27:06;;;;;;;;;;;11.20;99.90;;;;;;5014741;28;19921;-62
2022/05/08 07:29:31;;;;;;;;;;;12.00;99.90;;;;;;5014765;28;20228;-61
2022/05/08 07:31:58;;;;;;;;;;;11.40;99.90;;;;;;5014439;28;20017;-61
2022/05/08 07:37:07;;;;;;;;;;;10.90;99.90;;;;;;5014523;28;19928;-61
2022/05/08 07:39:33;;;;;;;;;;;11.10;99.90;;;;;;5014473;28;20020;-62
2022/05/08 07:41:59;;;;;;;;;;;11.20;99.90;;;;;;5014317;28;20012;-61
2022/05/08 07:44:24;;;;;;;;;;;10.60;99.90;;;;;;4996782;28;19933;-61
2022/05/08 07:46:51;;;;;;;;;;;10.70;99.90;;;;;;5014311;28;19925;-64
2022/05/08 07:49:16;;;;;;;;;;;10.50;99.90;;;;;;4998531;28;19976;-62
2022/05/08 07:51:42;;;;;;;;;;;10.70;99.90;;;;;;4994416;28;19980;-62
2022/05/08 07:54:08;;;;;;;;;;;10.60;99.90;;;;;;4994452;28;19921;-61
2022/05/08 07:56:34;;;;;;;;;;;10.50;99.90;;;;;;4994419;28;19973;-62
2022/05/08 07:59:00;;;;;;;;;;;10.70;99.90;;;;;;5009512;28;19975;-62
2022/05/08 08:01:25;;;;;;;;;;;10.80;99.90;;;;;;5024570;28;19929;-75
2022/05/08 08:03:51;;;;;;;;;;;11.10;99.90;;;;;;5008953;28;19932;-73
2022/05/08 08:06:17;;;;;;;;;;;10.60;99.90;;;;;;5009869;28;20004;-62
2022/05/08 08:08:42;;;;;;;;;;;10.50;99.90;;;;;;5011309;28;19921;-62
2022/05/08 08:11:09;;;;;;;;;;;10.90;99.90;;;;;;5011072;28;19929;-62
2022/05/08 08:13:35;;;;;;;;;;;10.80;99.90;;;;;;5010283;28;20262;-65
2022/05/08 08:16:01;;;;;;;;;;;10.70;99.90;;;;;;5009361;28;19932;-63
2022/05/08 08:18:27;;;;;;;;;;;10.70;99.90;;;;;;5013162;28;19921;-62
2022/05/08 08:20:53;;;;;;;;;;;10.90;99.90;;;;;;5014010;28;19928;-62
2022/05/08 08:23:19;;;;;;;;;;;11.10;99.90;;;;;;5013881;28;19984;-61
2022/05/08 08:25:45;;;;;;;;;;;11.30;99.90;;;;;;4996611;28;19922;-60
2022/05/08 08:28:10;;;;;;;;;;;11.90;99.90;;;;;;5013705;28;19928;-61
2022/05/08 08:30:36;;;;;;;;;;;11.80;99.90;;;;;;4995658;28;19932;-63
2022/05/08 08:33:02;;;;;;;;;;;12.20;99.90;;;;;;5013903;28;19928;-62
2022/05/08 08:35:27;;;;;;;;;;;12.60;99.90;;;;;;5013711;28;19975;-61
2022/05/08 08:37:53;;;;;;;;;;;12.40;99.90;;;;;;5013771;28;19980;-62
2022/05/08 08:40:20;;;;;;;;;;;12.30;99.90;;;;;;4996184;28;19925;-62
2022/05/08 08:42:46;;;;;;;;;;;12.50;99.90;;;;;;5013677;28;19972;-64
2022/05/08 08:47:56;;;;;;;;;;;12.80;99.90;;;;;;5013660;28;19922;-62
2022/05/08 08:50:26;;;;;;;;;;;12.50;99.90;;;;;;5013532;28;19925;-61
2022/05/08 08:52:58;;;;;;;;;;;12.00;99.90;;;;;;5013489;28;19931;-61
2022/05/08 08:55:24;;;;;;;;;;;13.00;99.90;;;;;;5013267;28;20427;-62
2022/05/08 08:57:50;;;;;;;;;;;12.50;99.90;;;;;;5013605;28;19925;-62
2022/05/08 09:00:16;;;;;;;;;;;12.70;99.90;;;;;;5013516;28;20036;-62
2022/05/08 09:02:42;;;;;;;;;;;12.80;99.90;;;;;;5013440;28;19933;-62
2022/05/08 09:05:09;;;;;;;;;;;12.70;99.90;;;;;;5013393;28;19922;-63
2022/05/08 09:07:38;;;;;;;;;;;13.20;99.90;;;;;;5013244;28;19925;-62
2022/05/08 09:10:10;;;;;;;;;;;13.10;99.90;;;;;;5013087;28;19921;-62
2022/05/08 09:12:37;;;;;;;;;;;13.10;99.90;;;;;;5013324;28;19963;-62
2022/05/08 09:15:22;;;;;;;;;;;13.20;99.90;;;;;;4995547;28;20018;-62
2022/05/08 09:17:49;;;;;;;;;;;13.30;99.90;;;;;;5012409;28;20263;-62
2022/05/08 09:20:30;;;;;;;;;;;13.50;99.90;;;;;;5013046;28;19922;-62
2022/05/08 09:23:01;;;;;;;;;;;13.70;99.90;;;;;;5013056;28;20027;-68
2022/05/08 09:25:46;;;;;;;;;;;13.40;99.90;;;;;;5012868;28;19925;-63
2022/05/08 09:28:13;;;;;;;;;;;13.00;99.90;;;;;;5013138;28;19933;-64
2022/05/08 09:30:54;;;;;;;;;;;13.00;99.90;;;;;;4995732;28;19922;-62
2022/05/08 09:33:30;;;;;;;;;;;13.40;99.90;;;;;;5013130;28;20020;-62
2022/05/08 09:35:56;;;;;;;;;;;12.70;99.90;;;;;;5012875;28;19988;-64
2022/05/08 09:38:21;;;;;;;;;;;12.30;99.90;;;;;;5013049;28;19991;-62
2022/05/08 09:41:07;;;;;;;;;;;12.10;99.90;;;;;;5012938;28;20288;-62
2022/05/08 09:43:34;;;;;;;;;;;12.90;99.90;;;;;;5016003;28;19929;-63
2022/05/08 09:46:00;;;;;;;;;;;13.00;99.90;;;;;;5017031;28;19922;-62
2022/05/08 09:48:30;;;;;;;;;;;13.20;99.90;;;;;;5016980;28;19944;-62
2022/05/08 09:51:00;;;;;;;;;;;13.20;99.90;;;;;;5016892;28;19972;-62
2022/05/08 09:53:26;;;;;;;;;;;13.10;99.90;;;;;;4999122;28;19940;-61
2022/05/08 09:55:52;;;;;;;;;;;12.80;99.90;;;;;;5016563;28;19922;-61
2022/05/08 09:58:18;;;;;;;;;;;13.10;99.90;;;;;;5016831;28;20305;-62
2022/05/08 10:00:45;;;;;;;;;;;12.50;99.90;;;;;;5016716;28;19925;-62
2022/05/08 10:03:11;;;;;;;;;;;12.70;99.90;;;;;;5016636;28;19921;-62
2022/05/08 10:05:37;;;;;;;;;;;12.80;99.90;;;;;;5016701;28;19925;-62
2022/05/08 10:08:03;;;;;;;;;;;12.60;99.90;;;;;;5016374;28;19921;-62
2022/05/08 10:16:37;;;;;;;;;;;12.90;99.90;;;;;;5016135;28;19922;-62
2022/05/08 10:19:23;;;;;;;;;;;13.10;99.90;;;;;;5016035;28;19948;-62
2022/05/08 10:22:05;;;;;;;;;;;12.90;99.90;;;;;;5016138;28;19921;-60
2022/05/08 10:24:34;;;;;;;;;;;13.00;99.90;;;;;;5016098;28;20361;-62
2022/05/08 10:27:15;;;;;;;;;;;12.60;99.90;;;;;;5016232;28;19969;-62
2022/05/08 10:29:41;;;;;;;;;;;13.00;99.90;;;;;;4998777;28;20028;-62
2022/05/08 10:32:09;;;;;;;;;;;13.30;99.90;;;;;;5016149;28;19976;-62
2022/05/08 10:34:35;;;;;;;;;;;13.30;99.90;;;;;;4998536;28;20012;-62
2022/05/08 10:37:13;;;;;;;;;;;13.30;99.90;;;;;;5016150;28;20009;-62
2022/05/08 10:39:42;;;;;;;;;;;13.40;99.90;;;;;;5015803;28;19921;-62
2022/05/08 10:42:23;;;;;;;;;;;13.30;99.90;;;;;;5015814;28;19925;-64
2022/05/08 10:44:49;;;;;;;;;;;13.30;99.90;;;;;;5015691;28;20293;-62
2022/05/08 10:47:33;;;;;;;;;;;13.40;99.90;;;;;;5015828;28;19928;-62
2022/05/08 10:49:59;;;;;;;;;;;13.40;99.90;;;;;;5015683;28;19921;-61
2022/05/08 10:52:25;;;;;;;;;;;13.40;99.90;;;;;;5015074;28;19967;-62
2022/05/08 10:54:59;;;;;;;;;;;13.10;99.90;;;;;;5015738;28;19925;-61
2022/05/08 10:57:29;;;;;;;;;;;13.50;99.90;;;;;;5015700;28;19972;-62
2022/05/08 10:59:54;;;;;;;;;;;13.50;99.90;;;;;;5015611;28;19975;-62
2022/05/08 11:02:39;;;;;;;;;;;13.60;99.90;;;;;;5015409;28;19925;-61
2022/05/08 11:05:06;;;;;;;;;;;13.70;99.90;;;;;;5015566;28;19991;-62
2022/05/08 11:07:32;;;;;;;;;;;13.10;99.90;;;;;;5015559;28;19969;-61
2022/05/08 11:09:58;;;;;;;;;;;13.10;99.90;;;;;;5015485;28;20416;-62
2022/05/08 11:12:24;;;;;;;;;;;13.40;99.90;;;;;;5015337;28;19983;-62
2022/05/08 11:14:49;;;;;;;;;;;13.00;99.90;;;;;;5015162;28;20373;-62
2022/05/08 11:17:15;;;;;;;;;;;14.30;99.90;;;;;;5023477;28;20039;-61
2022/05/08 11:19:55;;;;;;;;;;;13.80;99.90;;;;;;5016096;28;19967;-61
2022/05/08 11:22:21;;;;;;;;;;;13.80;99.90;;;;;;5034802;28;20023;-62
2022/05/08 11:24:47;;;;;;;;;;;13.80;99.90;;;;;;5034994;28;19973;-62
2022/05/08 11:27:13;;;;;;;;;;;13.80;99.90;;;;;;5034905;28;19931;-64
2022/05/08 11:29:45;;;;;;;;;;;14.10;99.90;;;;;;5034726;28;20004;-62
2022/05/08 11:38:00;;;;;;;;;;;14.30;99.90;;;;;;5034464;28;20423;-62
2022/05/08 11:40:30;;;;;;;;;;;14.40;99.90;;;;;;5016713;28;19940;-61
2022/05/08 11:42:55;;;;;;;;;;;14.10;99.90;;;;;;5034851;28;20278;-62
2022/05/08 11:45:21;;;;;;;;;;;13.40;99.90;;;;;;5034580;28;19928;-62
2022/05/08 11:47:50;;;;;;;;;;;13.50;99.90;;;;;;5034503;28;19991;-62
2022/05/08 11:50:16;;;;;;;;;;;13.60;99.90;;;;;;5034429;28;19927;-62
2022/05/08 11:52:41;;;;;;;;;;;13.50;99.90;;;;;;5034242;28;19921;-62
2022/05/08 11:55:08;;;;;;;;;;;13.50;99.90;;;;;;5034376;28;19993;-61
2022/05/08 11:57:41;;;;;;;;;;;14.10;99.90;;;;;;5034402;28;19925;-61
2022/05/08 12:00:08;;;;;;;;;;;14.30;99.90;;;;;;5034305;28;20365;-62
2022/05/08 12:02:41;;;;;;;;;;;14.40;99.90;;;;;;5034190;28;19964;-62
2022/05/08 12:05:07;;;;;;;;;;;14.90;99.90;;;;;;5033162;28;19974;-61
2022/05/08 12:07:39;;;;;;;;;;;14.10;99.90;;;;;;5033965;28;19925;-61
2022/05/08 12:10:05;;;;;;;;;;;13.80;99.90;;;;;;5034250;28;20296;-62
2022/05/08 12:12:30;;;;;;;;;;;14.00;99.90;;;;;;5033922;28;19928;-61
2022/05/08 12:15:02;;;;;;;;;;;14.10;99.90;;;;;;5033925;28;19921;-62
2022/05/08 12:17:29;;;;;;;;;;;14.30;99.90;;;;;;5034009;28;19921;-62
2022/05/08 12:19:56;;;;;;;;;;;13.90;99.90;;;;;;5033710;28;20362;-62
2022/05/08 12:22:24;;;;;;;;;;;14.40;99.90;;;;;;5033905;28;19968;-62
2022/05/08 12:24:50;;;;;;;;;;;14.80;99.90;;;;;;5033849;28;20024;-61
2022/05/08 12:27:15;;;;;;;;;;;14.90;99.90;;;;;;5033766;28;19976;-62
2022/05/08 12:29:43;;;;;;;;;;;14.50;99.90;;;;;;5033673;28;19967;-62
2022/05/08 12:32:09;;;;;;;;;;;14.40;99.90;;;;;;5033715;28;19927;-62
2022/05/08 12:34:34;;;;;;;;;;;14.20;99.90;;;;;;5033338;28;20019;-63
2022/05/08 12:37:00;;;;;;;;;;;14.20;99.90;;;;;;5033578;28;19925;-63
2022/05/08 12:39:25;;;;;;;;;;;14.00;99.90;;;;;;5033343;28;20392;-62
2022/05/08 12:41:51;;;;;;;;;;;14.10;99.90;;;;;;5033559;28;19972;-62
2022/05/08 12:44:17;;;;;;;;;;;14.30;99.90;;;;;;5033500;28;19925;-62
2022/05/08 12:46:42;;;;;;;;;;;13.90;99.90;;;;;;5033279;28;20019;-61
2022/05/08 12:49:10;;;;;;;;;;;14.40;99.90;;;;;;5033228;28;20381;-62
2022/05/08 12:51:35;;;;;;;;;;;14.20;99.90;;;;;;5033378;28;19921;-62
2022/05/08 12:54:04;;;;;;;;;;;14.00;99.90;;;;;;5033286;28;19920;-62
2022/05/08 12:56:31;;;;;;;;;;;13.90;99.90;;;;;;5033261;28;20011;-61
2022/05/08 13:01:41;;;;;;;;;;;14.80;99.90;;;;;;5033038;28;19974;-62
2022/05/08 13:04:07;;;;;;;;;;;14.60;99.90;;;;;;5032995;28;19925;-62
2022/05/08 13:06:33;;;;;;;;;;;14.60;99.90;;;;;;5033177;28;19974;-63
2022/05/08 13:08:58;;;;;;;;;;;14.60;99.90;;;;;;5033059;28;19928;-62
2022/05/08 13:11:24;;;;;;;;;;;14.70;99.90;;;;;;5032950;28;20368;-62
2022/05/08 13:13:50;;;;;;;;;;;14.50;99.90;;;;;;5032960;28;19929;-62
2022/05/08 13:16:16;;;;;;;;;;;14.70;99.90;;;;;;5032493;28;19964;-61
2022/05/08 13:18:42;;;;;;;;;;;15.00;99.90;;;;;;5032980;28;19944;-62
2022/05/08 13:21:07;;;;;;;;;;;14.50;99.90;;;;;;5015548;28;20377;-61
2022/05/08 13:23:33;;;;;;;;;;;14.70;99.90;;;;;;5032972;28;19924;-61
2022/05/08 13:25:58;;;;;;;;;;;14.50;99.90;;;;;;5015093;28;19975;-61
2022/05/08 13:28:24;;;;;;;;;;;14.90;99.90;;;;;;5032804;28;19931;-61
2022/05/08 13:30:50;;;;;;;;;;;15.00;99.90;;;;;;5032699;28;20369;-63
2022/05/08 13:33:15;;;;;;;;;;;14.80;99.90;;;;;;5015407;28;20323;-62
2022/05/08 13:35:41;;;;;;;;;;;15.00;99.90;;;;;;5032830;28;19933;-62
2022/05/08 13:38:06;;;;;;;;;;;15.40;99.90;;;;;;5015075;28;20353;-62
2022/05/08 13:40:32;;;;;;;;;;;15.20;99.90;;;;;;5015135;28;19921;-62
2022/05/08 13:42:57;;;;;;;;;;;15.00;99.90;;;;;;5032669;28;19921;-62
2022/05/08 13:45:23;;;;;;;;;;;14.80;99.90;;;;;;5032568;28;19925;-61
2022/05/08 13:47:49;;;;;;;;;;;15.30;99.90;;;;;;5032767;28;19928;-62
2022/05/08 13:50:14;;;;;;;;;;;15.30;99.90;;;;;;5032748;28;20527;-62
2022/05/08 13:52:40;;;;;;;;;;;16.70;99.90;;;;;;5032572;28;20024;-63
2022/05/08 13:55:11;;;;;;;;;;;15.20;99.90;;;;;;4998574;28;19921;-62
2022/05/08 13:57:36;;;;;;;;;;;14.60;99.90;;;;;;5032555;28;20095;-61
2022/05/08 14:00:02;;;;;;;;;;;14.60;99.90;;;;;;5015006;28;20358;-61
2022/05/08 14:02:28;;;;;;;;;;;14.10;99.90;;;;;;5032647;28;19921;-61
2022/05/08 14:04:53;;;;;;;;;;;14.30;99.90;;;;;;5032547;28;19925;-61
2022/05/08 14:07:19;;;;;;;;;;;15.00;99.90;;;;;;5032498;28;19987;-61
2022/05/08 14:09:46;;;;;;;;;;;14.90;99.90;;;;;;5015126;28;19925;-61
2022/05/08 14:12:12;;;;;;;;;;;15.20;99.90;;;;;;5014713;28;19920;-62
2022/05/08 14:14:37;;;;;;;;;;;15.10;99.90;;;;;;5032266;28;19928;-61
2022/05/08 14:17:03;;;;;;;;;;;15.20;99.90;;;;;;5032728;28;19925;-62
2022/05/08 14:19:29;;;;;;;;;;;15.20;99.90;;;;;;5032341;28;20377;-60
2022/05/08 14:21:54;;;;;;;;;;;15.30;99.90;;;;;;5032401;28;19928;-61
2022/05/08 14:24:20;;;;;;;;;;;16.90;99.90;;;;;;5032360;28;20324;-61
2022/05/08 14:26:46;;;;;;;;;;;15.50;99.90;;;;;;5032217;28;19927;-62
2022/05/08 14:29:13;;;;;;;;;;;15.70;99.90;;;;;;5035065;28;19928;-61
2022/05/08 14:37:07;;;;;;;;;;;16.50;99.90;;;;;;5035742;28;19928;-63
2022/05/08 14:39:32;;;;;;;;;;;16.10;99.90;;;;;;5036071;28;19921;-61
2022/05/08 14:41:58;;;;;;;;;;;16.30;99.90;;;;;;5036194;28;20065;-62
2022/05/08 14:44:23;;;;;;;;;;;15.70;99.90;;;;;;5035713;28;20274;-61
2022/05/08 14:46:49;;;;;;;;;;;16.10;99.90;;;;;;5018356;28;20361;-61
2022/05/08 14:49:14;;;;;;;;;;;16.00;99.90;;;;;;5036562;28;19920;-60
2022/05/08 14:51:40;;;;;;;;;;;16.50;99.90;;;;;;5018697;28;19925;-61
2022/05/08 14:54:05;;;;;;;;;;;16.00;99.90;;;;;;5036385;28;19925;-64
2022/05/08 14:56:32;;;;;;;;;;;16.10;99.90;;;;;;5035400;28;19960;-61
2022/05/08 14:58:58;;;;;;;;;;;16.40;99.90;;;;;;5035492;28;19921;-61